sensor_id;sensor_type;location;lat;lon;timestamp;P1;durP1;ratioP1;P2;durP2;ratioP2
80621;SDS011;69980;51.914;7.526;2023-06-14T00:01:46;6.05;;;2.60;;
80621;SDS011;69980;51.914;7.526;2023-06-14T00:04:11;3.67;;;2.20;;
80621;SDS011;69980;51.914;7.526;2023-06-14T00:06:37;4.55;;;2.00;;
80621;SDS011;69980;51.914;7.526;2023-06-14T00:09:02;7.28;;;2.40;;
80621;SDS011;69980;51.914;7.526;2023-06-14T00:11:28;4.15;;;2.25;;
80621;SDS011;69980;51.914;7.526;2023-06-14T00:13:53;3.83;;;2.40;;
80621;SDS011;69980;51.914;7.526;2023-06-14T00:16:18;5.07;;;2.28;;
80621;SDS011;69980;51.914;7.526;2023-06-14T00:18:43;4.43;;;2.20;;
80621;SDS011;69980;51.914;7.526;2023-06-14T00:21:09;5.13;;;2.47;;
80621;SDS011;69980;51.914;7.526;2023-06-14T00:23:34;4.10;;;2.40;;
80621;SDS011;69980;51.914;7.526;2023-06-14T00:25:59;4.57;;;2.33;;
80621;SDS011;69980;51.914;7.526;2023-06-14T00:28:24;4.93;;;2.20;;
80621;SDS011;69980;51.914;7.526;2023-06-14T00:30:50;4.13;;;2.15;;
80621;SDS011;69980;51.914;7.526;2023-06-14T00:33:15;5.82;;;2.53;;
80621;SDS011;69980;51.914;7.526;2023-06-14T00:35:40;4.75;;;2.35;;
80621;SDS011;69980;51.914;7.526;2023-06-14T00:38:06;4.35;;;2.40;;
80621;SDS011;69980;51.914;7.526;2023-06-14T00:40:31;5.40;;;2.30;;
80621;SDS011;69980;51.914;7.526;2023-06-14T00:42:56;4.22;;;2.30;;
80621;SDS011;69980;51.914;7.526;2023-06-14T00:45:22;3.50;;;2.40;;
80621;SDS011;69980;51.914;7.526;2023-06-14T00:47:47;3.10;;;2.28;;
80621;SDS011;69980;51.914;7.526;2023-06-14T00:50:13;6.22;;;2.70;;
80621;SDS011;69980;51.914;7.526;2023-06-14T00:52:38;6.63;;;2.47;;
80621;SDS011;69980;51.914;7.526;2023-06-14T00:55:04;6.53;;;2.75;;
80621;SDS011;69980;51.914;7.526;2023-06-14T00:57:30;3.63;;;2.40;;
80621;SDS011;69980;51.914;7.526;2023-06-14T00:59:56;3.70;;;2.30;;
80621;SDS011;69980;51.914;7.526;2023-06-14T01:02:21;5.22;;;2.70;;
80621;SDS011;69980;51.914;7.526;2023-06-14T01:04:47;3.83;;;2.30;;
80621;SDS011;69980;51.914;7.526;2023-06-14T01:10:16;4.07;;;2.22;;
80621;SDS011;69980;51.914;7.526;2023-06-14T01:15:36;4.70;;;2.63;;
80621;SDS011;69980;51.914;7.526;2023-06-14T01:18:02;4.72;;;2.53;;
80621;SDS011;69980;51.914;7.526;2023-06-14T01:20:28;4.38;;;2.28;;
80621;SDS011;69980;51.914;7.526;2023-06-14T01:22:57;5.72;;;2.40;;
80621;SDS011;69980;51.914;7.526;2023-06-14T01:25:23;3.85;;;2.45;;
80621;SDS011;69980;51.914;7.526;2023-06-14T01:27:49;5.80;;;2.20;;
80621;SDS011;69980;51.914;7.526;2023-06-14T01:30:15;3.55;;;2.20;;
80621;SDS011;69980;51.914;7.526;2023-06-14T01:32:41;2.83;;;1.95;;
80621;SDS011;69980;51.914;7.526;2023-06-14T01:35:07;5.30;;;2.28;;
80621;SDS011;69980;51.914;7.526;2023-06-14T01:37:32;4.90;;;2.35;;
80621;SDS011;69980;51.914;7.526;2023-06-14T01:39:58;3.28;;;2.13;;
80621;SDS011;69980;51.914;7.526;2023-06-14T01:42:23;4.50;;;2.40;;
80621;SDS011;69980;51.914;7.526;2023-06-14T01:44:49;4.22;;;2.33;;
80621;SDS011;69980;51.914;7.526;2023-06-14T01:47:15;4.03;;;2.22;;
80621;SDS011;69980;51.914;7.526;2023-06-14T01:49:40;3.13;;;2.30;;
80621;SDS011;69980;51.914;7.526;2023-06-14T01:52:06;4.10;;;2.13;;
80621;SDS011;69980;51.914;7.526;2023-06-14T01:54:31;4.10;;;2.35;;
80621;SDS011;69980;51.914;7.526;2023-06-14T01:56:56;4.35;;;2.10;;
80621;SDS011;69980;51.914;7.526;2023-06-14T01:59:22;3.45;;;2.20;;
80621;SDS011;69980;51.914;7.526;2023-06-14T02:01:47;4.28;;;2.20;;
80621;SDS011;69980;51.914;7.526;2023-06-14T02:04:12;4.53;;;2.25;;
80621;SDS011;69980;51.914;7.526;2023-06-14T02:06:38;4.45;;;2.20;;
80621;SDS011;69980;51.914;7.526;2023-06-14T02:09:03;6.50;;;2.28;;
80621;SDS011;69980;51.914;7.526;2023-06-14T02:11:28;2.92;;;2.00;;
80621;SDS011;69980;51.914;7.526;2023-06-14T02:13:54;3.85;;;2.40;;
80621;SDS011;69980;51.914;7.526;2023-06-14T02:16:19;7.03;;;2.38;;
80621;SDS011;69980;51.914;7.526;2023-06-14T02:18:45;3.58;;;2.03;;
80621;SDS011;69980;51.914;7.526;2023-06-14T02:21:10;4.53;;;2.35;;
80621;SDS011;69980;51.914;7.526;2023-06-14T02:23:35;3.58;;;2.00;;
80621;SDS011;69980;51.914;7.526;2023-06-14T02:26:01;3.95;;;2.20;;
80621;SDS011;69980;51.914;7.526;2023-06-14T02:28:26;6.97;;;2.40;;
80621;SDS011;69980;51.914;7.526;2023-06-14T02:30:51;5.10;;;2.28;;
80621;SDS011;69980;51.914;7.526;2023-06-14T02:33:16;3.70;;;2.30;;
80621;SDS011;69980;51.914;7.526;2023-06-14T02:35:42;4.28;;;2.25;;
80621;SDS011;69980;51.914;7.526;2023-06-14T02:38:07;5.50;;;1.90;;
80621;SDS011;69980;51.914;7.526;2023-06-14T02:40:32;6.93;;;2.50;;
80621;SDS011;69980;51.914;7.526;2023-06-14T02:42:58;5.10;;;2.05;;
80621;SDS011;69980;51.914;7.526;2023-06-14T02:45:23;4.07;;;2.17;;
80621;SDS011;69980;51.914;7.526;2023-06-14T02:47:48;4.30;;;2.10;;
80621;SDS011;69980;51.914;7.526;2023-06-14T02:50:13;4.70;;;2.28;;
80621;SDS011;69980;51.914;7.526;2023-06-14T02:52:39;3.65;;;2.03;;
80621;SDS011;69980;51.914;7.526;2023-06-14T02:55:04;3.40;;;2.22;;
80621;SDS011;69980;51.914;7.526;2023-06-14T02:57:30;3.95;;;2.30;;
80621;SDS011;69980;51.914;7.526;2023-06-14T02:59:55;4.63;;;2.20;;
80621;SDS011;69980;51.914;7.526;2023-06-14T03:02:20;3.08;;;2.10;;
80621;SDS011;69980;51.914;7.526;2023-06-14T03:04:46;4.47;;;2.20;;
80621;SDS011;69980;51.914;7.526;2023-06-14T03:07:11;3.92;;;2.22;;
80621;SDS011;69980;51.914;7.526;2023-06-14T03:09:37;4.93;;;2.17;;
80621;SDS011;69980;51.914;7.526;2023-06-14T03:12:03;6.00;;;2.50;;
80621;SDS011;69980;51.914;7.526;2023-06-14T03:14:29;4.65;;;2.03;;
80621;SDS011;69980;51.914;7.526;2023-06-14T03:16:54;4.53;;;2.00;;
80621;SDS011;69980;51.914;7.526;2023-06-14T03:19:19;4.88;;;2.33;;
80621;SDS011;69980;51.914;7.526;2023-06-14T03:21:44;4.00;;;2.15;;
80621;SDS011;69980;51.914;7.526;2023-06-14T03:24:10;6.22;;;2.20;;
80621;SDS011;69980;51.914;7.526;2023-06-14T03:26:35;4.55;;;2.15;;
80621;SDS011;69980;51.914;7.526;2023-06-14T03:29:00;4.40;;;2.35;;
80621;SDS011;69980;51.914;7.526;2023-06-14T03:31:26;4.10;;;2.40;;
80621;SDS011;69980;51.914;7.526;2023-06-14T03:33:51;6.47;;;2.30;;
80621;SDS011;69980;51.914;7.526;2023-06-14T03:36:16;3.95;;;2.20;;
80621;SDS011;69980;51.914;7.526;2023-06-14T03:38:41;4.50;;;2.50;;
80621;SDS011;69980;51.914;7.526;2023-06-14T03:41:07;3.67;;;2.20;;
80621;SDS011;69980;51.914;7.526;2023-06-14T03:43:32;5.10;;;2.20;;
80621;SDS011;69980;51.914;7.526;2023-06-14T03:45:57;4.60;;;2.30;;
80621;SDS011;69980;51.914;7.526;2023-06-14T03:48:23;4.65;;;2.38;;
80621;SDS011;69980;51.914;7.526;2023-06-14T03:50:48;2.90;;;2.00;;
80621;SDS011;69980;51.914;7.526;2023-06-14T03:53:13;3.97;;;2.30;;
80621;SDS011;69980;51.914;7.526;2023-06-14T03:55:38;5.07;;;2.13;;
80621;SDS011;69980;51.914;7.526;2023-06-14T03:58:04;4.85;;;2.42;;
80621;SDS011;69980;51.914;7.526;2023-06-14T04:00:29;5.00;;;2.40;;
80621;SDS011;69980;51.914;7.526;2023-06-14T04:02:54;5.57;;;2.20;;
80621;SDS011;69980;51.914;7.526;2023-06-14T04:05:20;4.53;;;2.30;;
80621;SDS011;69980;51.914;7.526;2023-06-14T04:07:45;3.88;;;2.42;;
80621;SDS011;69980;51.914;7.526;2023-06-14T04:10:15;5.20;;;2.45;;
80621;SDS011;69980;51.914;7.526;2023-06-14T04:12:41;3.40;;;1.77;;
80621;SDS011;69980;51.914;7.526;2023-06-14T04:15:06;4.07;;;2.20;;
80621;SDS011;69980;51.914;7.526;2023-06-14T04:17:32;5.50;;;2.28;;
80621;SDS011;69980;51.914;7.526;2023-06-14T04:19:58;4.50;;;2.00;;
80621;SDS011;69980;51.914;7.526;2023-06-14T04:22:24;5.03;;;2.15;;
80621;SDS011;69980;51.914;7.526;2023-06-14T04:24:49;4.03;;;2.20;;
80621;SDS011;69980;51.914;7.526;2023-06-14T04:27:14;6.10;;;2.20;;
80621;SDS011;69980;51.914;7.526;2023-06-14T04:29:40;3.95;;;2.20;;
80621;SDS011;69980;51.914;7.526;2023-06-14T04:32:05;4.07;;;2.13;;
80621;SDS011;69980;51.914;7.526;2023-06-14T04:34:30;5.72;;;2.10;;
80621;SDS011;69980;51.914;7.526;2023-06-14T04:36:56;6.03;;;2.17;;
80621;SDS011;69980;51.914;7.526;2023-06-14T04:39:21;5.20;;;2.10;;
80621;SDS011;69980;51.914;7.526;2023-06-14T04:41:47;4.15;;;1.92;;
80621;SDS011;69980;51.914;7.526;2023-06-14T04:44:12;5.00;;;2.22;;
80621;SDS011;69980;51.914;7.526;2023-06-14T04:46:38;3.50;;;2.22;;
80621;SDS011;69980;51.914;7.526;2023-06-14T04:49:04;4.78;;;2.35;;
80621;SDS011;69980;51.914;7.526;2023-06-14T04:51:29;4.82;;;2.40;;
80621;SDS011;69980;51.914;7.526;2023-06-14T04:53:55;4.35;;;2.30;;
80621;SDS011;69980;51.914;7.526;2023-06-14T04:56:21;4.03;;;1.75;;
80621;SDS011;69980;51.914;7.526;2023-06-14T04:58:46;4.45;;;2.20;;
80621;SDS011;69980;51.914;7.526;2023-06-14T05:01:12;4.20;;;2.20;;
80621;SDS011;69980;51.914;7.526;2023-06-14T05:03:37;4.53;;;2.20;;
80621;SDS011;69980;51.914;7.526;2023-06-14T05:06:02;4.03;;;1.80;;
80621;SDS011;69980;51.914;7.526;2023-06-14T05:08:28;4.90;;;2.25;;
80621;SDS011;69980;51.914;7.526;2023-06-14T05:10:53;4.75;;;2.20;;
80621;SDS011;69980;51.914;7.526;2023-06-14T05:13:20;4.38;;;2.10;;
80621;SDS011;69980;51.914;7.526;2023-06-14T05:15:45;3.17;;;2.00;;
80621;SDS011;69980;51.914;7.526;2023-06-14T05:18:10;6.45;;;1.90;;
80621;SDS011;69980;51.914;7.526;2023-06-14T05:20:36;3.65;;;2.00;;
80621;SDS011;69980;51.914;7.526;2023-06-14T05:23:02;3.53;;;2.00;;
80621;SDS011;69980;51.914;7.526;2023-06-14T05:25:27;4.18;;;2.10;;
80621;SDS011;69980;51.914;7.526;2023-06-14T05:27:53;5.75;;;1.98;;
80621;SDS011;69980;51.914;7.526;2023-06-14T05:30:19;3.63;;;1.80;;
80621;SDS011;69980;51.914;7.526;2023-06-14T05:32:44;3.50;;;1.98;;
80621;SDS011;69980;51.914;7.526;2023-06-14T05:35:09;4.15;;;2.05;;
80621;SDS011;69980;51.914;7.526;2023-06-14T05:37:34;4.88;;;2.22;;
80621;SDS011;69980;51.914;7.526;2023-06-14T05:40:00;4.05;;;2.13;;
80621;SDS011;69980;51.914;7.526;2023-06-14T05:42:25;5.45;;;1.90;;
80621;SDS011;69980;51.914;7.526;2023-06-14T05:44:50;5.75;;;2.00;;
80621;SDS011;69980;51.914;7.526;2023-06-14T05:47:16;4.28;;;2.00;;
80621;SDS011;69980;51.914;7.526;2023-06-14T05:49:41;4.95;;;1.80;;
80621;SDS011;69980;51.914;7.526;2023-06-14T05:52:06;5.40;;;1.90;;
80621;SDS011;69980;51.914;7.526;2023-06-14T05:54:32;4.32;;;1.67;;
80621;SDS011;69980;51.914;7.526;2023-06-14T05:56:58;5.45;;;2.28;;
80621;SDS011;69980;51.914;7.526;2023-06-14T05:59:23;4.78;;;2.08;;
80621;SDS011;69980;51.914;7.526;2023-06-14T06:01:48;3.50;;;2.00;;
80621;SDS011;69980;51.914;7.526;2023-06-14T06:04:13;4.97;;;2.00;;
80621;SDS011;69980;51.914;7.526;2023-06-14T06:06:39;4.03;;;1.92;;
80621;SDS011;69980;51.914;7.526;2023-06-14T06:09:04;6.15;;;1.80;;
80621;SDS011;69980;51.914;7.526;2023-06-14T06:11:29;5.97;;;1.95;;
80621;SDS011;69980;51.914;7.526;2023-06-14T06:13:54;3.95;;;1.80;;
80621;SDS011;69980;51.914;7.526;2023-06-14T06:16:20;4.65;;;1.70;;
80621;SDS011;69980;51.914;7.526;2023-06-14T06:18:45;4.00;;;1.90;;
80621;SDS011;69980;51.914;7.526;2023-06-14T06:21:10;4.68;;;1.75;;
80621;SDS011;69980;51.914;7.526;2023-06-14T06:23:36;3.45;;;1.67;;
80621;SDS011;69980;51.914;7.526;2023-06-14T06:26:01;3.88;;;1.70;;
80621;SDS011;69980;51.914;7.526;2023-06-14T06:28:26;3.45;;;1.83;;
80621;SDS011;69980;51.914;7.526;2023-06-14T06:30:52;3.45;;;1.63;;
80621;SDS011;69980;51.914;7.526;2023-06-14T06:33:17;4.43;;;1.85;;
80621;SDS011;69980;51.914;7.526;2023-06-14T06:35:42;3.78;;;1.70;;
80621;SDS011;69980;51.914;7.526;2023-06-14T06:38:08;4.90;;;1.63;;
80621;SDS011;69980;51.914;7.526;2023-06-14T06:40:33;4.40;;;1.67;;
80621;SDS011;69980;51.914;7.526;2023-06-14T06:42:59;3.17;;;1.23;;
80621;SDS011;69980;51.914;7.526;2023-06-14T06:45:24;4.32;;;1.60;;
80621;SDS011;69980;51.914;7.526;2023-06-14T06:47:49;4.38;;;1.50;;
80621;SDS011;69980;51.914;7.526;2023-06-14T06:50:14;6.35;;;1.60;;
80621;SDS011;69980;51.914;7.526;2023-06-14T06:52:40;2.60;;;1.30;;
80621;SDS011;69980;51.914;7.526;2023-06-14T06:55:05;4.15;;;1.65;;
80621;SDS011;69980;51.914;7.526;2023-06-14T06:57:31;4.75;;;1.50;;
80621;SDS011;69980;51.914;7.526;2023-06-14T06:59:56;3.20;;;1.63;;
80621;SDS011;69980;51.914;7.526;2023-06-14T07:02:22;2.85;;;1.17;;
80621;SDS011;69980;51.914;7.526;2023-06-14T07:04:47;9.98;;;2.28;;
80621;SDS011;69980;51.914;7.526;2023-06-14T07:07:12;60.17;;;8.88;;
80621;SDS011;69980;51.914;7.526;2023-06-14T07:09:38;3.58;;;1.40;;
80621;SDS011;69980;51.914;7.526;2023-06-14T07:12:03;2.63;;;1.20;;
80621;SDS011;69980;51.914;7.526;2023-06-14T07:14:29;4.90;;;1.40;;
80621;SDS011;69980;51.914;7.526;2023-06-14T07:16:54;3.60;;;1.40;;
80621;SDS011;69980;51.914;7.526;2023-06-14T07:19:19;4.30;;;1.38;;
80621;SDS011;69980;51.914;7.526;2023-06-14T07:21:44;3.35;;;1.35;;
80621;SDS011;69980;51.914;7.526;2023-06-14T07:24:10;4.10;;;1.30;;
80621;SDS011;69980;51.914;7.526;2023-06-14T07:26:35;3.33;;;1.30;;
80621;SDS011;69980;51.914;7.526;2023-06-14T07:29:00;2.35;;;1.15;;
80621;SDS011;69980;51.914;7.526;2023-06-14T07:31:26;2.92;;;1.35;;
80621;SDS011;69980;51.914;7.526;2023-06-14T07:33:51;5.50;;;1.40;;
80621;SDS011;69980;51.914;7.526;2023-06-14T07:36:17;2.92;;;1.13;;
80621;SDS011;69980;51.914;7.526;2023-06-14T07:38:42;4.60;;;1.35;;
80621;SDS011;69980;51.914;7.526;2023-06-14T07:41:07;4.00;;;1.30;;
80621;SDS011;69980;51.914;7.526;2023-06-14T07:43:33;2.92;;;1.10;;
80621;SDS011;69980;51.914;7.526;2023-06-14T07:45:58;2.90;;;1.02;;
80621;SDS011;69980;51.914;7.526;2023-06-14T07:48:24;4.40;;;1.30;;
80621;SDS011;69980;51.914;7.526;2023-06-14T07:50:49;6.68;;;1.23;;
80621;SDS011;69980;51.914;7.526;2023-06-14T07:53:14;2.65;;;1.17;;
80621;SDS011;69980;51.914;7.526;2023-06-14T07:55:39;3.65;;;1.00;;
80621;SDS011;69980;51.914;7.526;2023-06-14T07:58:08;4.30;;;1.20;;
80621;SDS011;69980;51.914;7.526;2023-06-14T08:00:34;3.30;;;1.10;;
80621;SDS011;69980;51.914;7.526;2023-06-14T08:02:59;2.55;;;1.10;;
80621;SDS011;69980;51.914;7.526;2023-06-14T08:05:28;2.08;;;1.00;;
80621;SDS011;69980;51.914;7.526;2023-06-14T08:07:53;2.75;;;1.10;;
80621;SDS011;69980;51.914;7.526;2023-06-14T08:10:19;2.72;;;1.35;;
80621;SDS011;69980;51.914;7.526;2023-06-14T08:12:45;4.68;;;1.20;;
80621;SDS011;69980;51.914;7.526;2023-06-14T08:15:10;3.00;;;1.20;;
80621;SDS011;69980;51.914;7.526;2023-06-14T08:17:35;2.00;;;1.00;;
80621;SDS011;69980;51.914;7.526;2023-06-14T08:20:01;2.45;;;1.02;;
80621;SDS011;69980;51.914;7.526;2023-06-14T08:22:26;2.72;;;1.10;;
80621;SDS011;69980;51.914;7.526;2023-06-14T08:24:51;3.13;;;1.10;;
80621;SDS011;69980;51.914;7.526;2023-06-14T08:27:17;2.60;;;1.10;;
80621;SDS011;69980;51.914;7.526;2023-06-14T08:29:42;2.85;;;1.08;;
80621;SDS011;69980;51.914;7.526;2023-06-14T08:32:07;2.35;;;1.02;;
80621;SDS011;69980;51.914;7.526;2023-06-14T08:34:32;2.38;;;1.20;;
80621;SDS011;69980;51.914;7.526;2023-06-14T08:36:58;1.98;;;0.93;;
80621;SDS011;69980;51.914;7.526;2023-06-14T08:39:23;2.75;;;1.00;;
80621;SDS011;69980;51.914;7.526;2023-06-14T08:41:48;3.08;;;1.17;;
80621;SDS011;69980;51.914;7.526;2023-06-14T08:44:18;1.88;;;0.90;;
80621;SDS011;69980;51.914;7.526;2023-06-14T08:46:43;4.45;;;1.00;;
80621;SDS011;69980;51.914;7.526;2023-06-14T08:49:11;3.70;;;1.08;;
80621;SDS011;69980;51.914;7.526;2023-06-14T08:51:37;2.97;;;0.88;;
80621;SDS011;69980;51.914;7.526;2023-06-14T08:54:03;3.47;;;1.00;;
80621;SDS011;69980;51.914;7.526;2023-06-14T08:56:29;2.67;;;0.90;;
80621;SDS011;69980;51.914;7.526;2023-06-14T08:58:55;2.15;;;0.82;;
80621;SDS011;69980;51.914;7.526;2023-06-14T09:01:21;2.67;;;0.80;;
80621;SDS011;69980;51.914;7.526;2023-06-14T09:03:47;2.05;;;0.70;;
80621;SDS011;69980;51.914;7.526;2023-06-14T09:06:13;3.70;;;0.80;;
80621;SDS011;69980;51.914;7.526;2023-06-14T09:08:40;2.28;;;0.70;;
80621;SDS011;69980;51.914;7.526;2023-06-14T09:11:10;2.75;;;0.80;;
80621;SDS011;69980;51.914;7.526;2023-06-14T09:13:36;1.42;;;0.77;;
80621;SDS011;69980;51.914;7.526;2023-06-14T09:16:01;2.03;;;0.77;;
80621;SDS011;69980;51.914;7.526;2023-06-14T09:18:34;3.28;;;0.75;;
80621;SDS011;69980;51.914;7.526;2023-06-14T09:21:05;1.40;;;0.57;;
80621;SDS011;69980;51.914;7.526;2023-06-14T09:23:33;2.30;;;0.80;;
80621;SDS011;69980;51.914;7.526;2023-06-14T09:26:09;2.42;;;0.70;;
80621;SDS011;69980;51.914;7.526;2023-06-14T09:28:36;2.80;;;0.80;;
80621;SDS011;69980;51.914;7.526;2023-06-14T09:31:01;4.10;;;0.90;;
80621;SDS011;69980;51.914;7.526;2023-06-14T09:33:27;1.67;;;0.80;;
80621;SDS011;69980;51.914;7.526;2023-06-14T09:35:52;3.63;;;0.82;;
80621;SDS011;69980;51.914;7.526;2023-06-14T09:38:17;3.10;;;1.00;;
80621;SDS011;69980;51.914;7.526;2023-06-14T09:40:43;1.60;;;0.80;;
80621;SDS011;69980;51.914;7.526;2023-06-14T09:43:08;3.28;;;1.02;;
80621;SDS011;69980;51.914;7.526;2023-06-14T09:45:33;6.80;;;1.00;;
80621;SDS011;69980;51.914;7.526;2023-06-14T09:47:59;3.58;;;1.00;;
80621;SDS011;69980;51.914;7.526;2023-06-14T09:50:24;3.97;;;1.00;;
80621;SDS011;69980;51.914;7.526;2023-06-14T09:52:51;4.05;;;0.93;;
80621;SDS011;69980;51.914;7.526;2023-06-14T09:55:17;2.15;;;0.82;;
80621;SDS011;69980;51.914;7.526;2023-06-14T09:57:44;2.65;;;0.80;;
80621;SDS011;69980;51.914;7.526;2023-06-14T10:00:10;3.13;;;0.80;;
80621;SDS011;69980;51.914;7.526;2023-06-14T10:02:38;1.45;;;0.60;;
80621;SDS011;69980;51.914;7.526;2023-06-14T10:05:05;2.10;;;0.80;;
80621;SDS011;69980;51.914;7.526;2023-06-14T10:07:44;2.38;;;0.80;;
80621;SDS011;69980;51.914;7.526;2023-06-14T10:10:12;2.13;;;0.80;;
80621;SDS011;69980;51.914;7.526;2023-06-14T10:12:38;3.05;;;0.80;;
80621;SDS011;69980;51.914;7.526;2023-06-14T10:15:04;3.13;;;0.90;;
80621;SDS011;69980;51.914;7.526;2023-06-14T10:17:34;2.95;;;0.70;;
80621;SDS011;69980;51.914;7.526;2023-06-14T10:20:28;1.95;;;0.80;;
80621;SDS011;69980;51.914;7.526;2023-06-14T10:22:52;4.50;;;0.80;;
80621;SDS011;69980;51.914;7.526;2023-06-14T10:25:29;3.97;;;0.80;;
80621;SDS011;69980;51.914;7.526;2023-06-14T10:28:29;3.67;;;0.90;;
80621;SDS011;69980;51.914;7.526;2023-06-14T10:33:28;2.42;;;0.68;;
80621;SDS011;69980;51.914;7.526;2023-06-14T10:38:52;2.63;;;0.80;;
80621;SDS011;69980;51.914;7.526;2023-06-14T10:41:22;3.22;;;1.00;;
80621;SDS011;69980;51.914;7.526;2023-06-14T10:43:47;2.00;;;0.98;;
80621;SDS011;69980;51.914;7.526;2023-06-14T10:46:16;2.55;;;0.90;;
80621;SDS011;69980;51.914;7.526;2023-06-14T10:48:43;3.13;;;0.90;;
80621;SDS011;69980;51.914;7.526;2023-06-14T10:51:18;1.98;;;0.82;;
80621;SDS011;69980;51.914;7.526;2023-06-14T10:53:44;3.08;;;0.90;;
80621;SDS011;69980;51.914;7.526;2023-06-14T10:56:09;2.75;;;0.90;;
80621;SDS011;69980;51.914;7.526;2023-06-14T10:58:48;2.30;;;1.00;;
80621;SDS011;69980;51.914;7.526;2023-06-14T11:01:13;2.72;;;1.13;;
80621;SDS011;69980;51.914;7.526;2023-06-14T11:03:50;4.22;;;0.80;;
80621;SDS011;69980;51.914;7.526;2023-06-14T11:06:16;3.30;;;1.02;;
80621;SDS011;69980;51.914;7.526;2023-06-14T11:11:51;2.30;;;1.02;;
80621;SDS011;69980;51.914;7.526;2023-06-14T11:14:16;2.72;;;0.88;;
80621;SDS011;69980;51.914;7.526;2023-06-14T11:16:42;2.80;;;0.98;;
80621;SDS011;69980;51.914;7.526;2023-06-14T11:19:07;3.08;;;1.00;;
80621;SDS011;69980;51.914;7.526;2023-06-14T11:21:32;2.10;;;1.00;;
80621;SDS011;69980;51.914;7.526;2023-06-14T11:23:58;1.92;;;0.90;;
80621;SDS011;69980;51.914;7.526;2023-06-14T11:26:27;2.70;;;1.15;;
80621;SDS011;69980;51.914;7.526;2023-06-14T11:28:56;3.45;;;1.00;;
80621;SDS011;69980;51.914;7.526;2023-06-14T11:31:22;2.10;;;1.00;;
80621;SDS011;69980;51.914;7.526;2023-06-14T11:33:50;2.15;;;1.00;;
80621;SDS011;69980;51.914;7.526;2023-06-14T11:36:16;2.35;;;0.95;;
80621;SDS011;69980;51.914;7.526;2023-06-14T11:38:41;4.10;;;1.00;;
80621;SDS011;69980;51.914;7.526;2023-06-14T11:41:06;3.33;;;1.00;;
80621;SDS011;69980;51.914;7.526;2023-06-14T11:43:32;2.85;;;1.00;;
80621;SDS011;69980;51.914;7.526;2023-06-14T11:45:57;2.40;;;1.00;;
80621;SDS011;69980;51.914;7.526;2023-06-14T11:48:22;1.70;;;1.00;;
80621;SDS011;69980;51.914;7.526;2023-06-14T11:50:49;2.97;;;1.27;;
80621;SDS011;69980;51.914;7.526;2023-06-14T11:53:15;2.30;;;1.00;;
80621;SDS011;69980;51.914;7.526;2023-06-14T11:55:40;2.40;;;1.08;;
80621;SDS011;69980;51.914;7.526;2023-06-14T11:58:06;2.00;;;1.00;;
80621;SDS011;69980;51.914;7.526;2023-06-14T12:00:31;2.97;;;1.02;;
80621;SDS011;69980;51.914;7.526;2023-06-14T12:02:57;2.35;;;1.10;;
80621;SDS011;69980;51.914;7.526;2023-06-14T12:05:22;3.83;;;1.17;;
80621;SDS011;69980;51.914;7.526;2023-06-14T12:07:48;3.60;;;1.20;;
80621;SDS011;69980;51.914;7.526;2023-06-14T12:10:14;3.53;;;1.30;;
80621;SDS011;69980;51.914;7.526;2023-06-14T12:12:39;2.42;;;1.10;;
80621;SDS011;69980;51.914;7.526;2023-06-14T12:15:05;3.05;;;1.20;;
80621;SDS011;69980;51.914;7.526;2023-06-14T12:17:36;3.65;;;1.20;;
80621;SDS011;69980;51.914;7.526;2023-06-14T12:20:05;2.53;;;1.30;;
80621;SDS011;69980;51.914;7.526;2023-06-14T12:22:31;3.55;;;1.13;;
80621;SDS011;69980;51.914;7.526;2023-06-14T12:24:56;2.75;;;1.20;;
80621;SDS011;69980;51.914;7.526;2023-06-14T12:27:22;2.72;;;1.10;;
80621;SDS011;69980;51.914;7.526;2023-06-14T12:29:47;2.25;;;1.25;;
80621;SDS011;69980;51.914;7.526;2023-06-14T12:32:23;4.20;;;1.20;;
80621;SDS011;69980;51.914;7.526;2023-06-14T12:34:49;2.45;;;1.20;;
80621;SDS011;69980;51.914;7.526;2023-06-14T12:37:14;3.28;;;1.15;;
80621;SDS011;69980;51.914;7.526;2023-06-14T12:39:39;3.58;;;1.10;;
80621;SDS011;69980;51.914;7.526;2023-06-14T12:42:05;2.78;;;1.15;;
80621;SDS011;69980;51.914;7.526;2023-06-14T12:44:30;2.75;;;1.00;;
80621;SDS011;69980;51.914;7.526;2023-06-14T12:46:55;2.95;;;1.20;;
80621;SDS011;69980;51.914;7.526;2023-06-14T12:49:20;2.78;;;1.27;;
80621;SDS011;69980;51.914;7.526;2023-06-14T12:51:46;2.95;;;1.17;;
80621;SDS011;69980;51.914;7.526;2023-06-14T12:54:11;2.30;;;1.20;;
80621;SDS011;69980;51.914;7.526;2023-06-14T12:56:36;4.88;;;1.30;;
80621;SDS011;69980;51.914;7.526;2023-06-14T12:59:02;3.53;;;1.10;;
80621;SDS011;69980;51.914;7.526;2023-06-14T13:01:27;2.33;;;1.23;;
80621;SDS011;69980;51.914;7.526;2023-06-14T13:03:52;2.58;;;1.13;;
80621;SDS011;69980;51.914;7.526;2023-06-14T13:06:18;1.92;;;1.17;;
80621;SDS011;69980;51.914;7.526;2023-06-14T13:08:45;3.33;;;1.40;;
80621;SDS011;69980;51.914;7.526;2023-06-14T13:11:10;4.13;;;1.35;;
80621;SDS011;69980;51.914;7.526;2023-06-14T13:13:36;3.40;;;1.08;;
80621;SDS011;69980;51.914;7.526;2023-06-14T13:16:01;3.65;;;1.30;;
80621;SDS011;69980;51.914;7.526;2023-06-14T13:18:26;4.32;;;1.33;;
80621;SDS011;69980;51.914;7.526;2023-06-14T13:20:51;2.78;;;1.40;;
80621;SDS011;69980;51.914;7.526;2023-06-14T13:23:17;2.80;;;1.40;;
80621;SDS011;69980;51.914;7.526;2023-06-14T13:25:42;3.15;;;1.27;;
80621;SDS011;69980;51.914;7.526;2023-06-14T13:28:07;2.83;;;1.30;;
80621;SDS011;69980;51.914;7.526;2023-06-14T13:30:33;4.28;;;1.10;;
80621;SDS011;69980;51.914;7.526;2023-06-14T13:32:59;3.13;;;1.23;;
80621;SDS011;69980;51.914;7.526;2023-06-14T13:35:24;2.13;;;1.38;;
80621;SDS011;69980;51.914;7.526;2023-06-14T13:37:50;2.30;;;1.15;;
80621;SDS011;69980;51.914;7.526;2023-06-14T13:40:15;3.58;;;1.20;;
80621;SDS011;69980;51.914;7.526;2023-06-14T13:42:41;2.72;;;1.48;;
80621;SDS011;69980;51.914;7.526;2023-06-14T13:45:07;3.63;;;1.20;;
80621;SDS011;69980;51.914;7.526;2023-06-14T13:47:33;3.45;;;1.40;;
80621;SDS011;69980;51.914;7.526;2023-06-14T13:49:58;2.85;;;1.27;;
80621;SDS011;69980;51.914;7.526;2023-06-14T13:52:24;3.55;;;1.33;;
80621;SDS011;69980;51.914;7.526;2023-06-14T13:54:49;2.85;;;1.30;;
80621;SDS011;69980;51.914;7.526;2023-06-14T13:57:19;3.33;;;1.30;;
80621;SDS011;69980;51.914;7.526;2023-06-14T13:59:44;3.08;;;1.30;;
80621;SDS011;69980;51.914;7.526;2023-06-14T14:02:10;4.07;;;1.25;;
80621;SDS011;69980;51.914;7.526;2023-06-14T14:04:35;2.10;;;1.10;;
80621;SDS011;69980;51.914;7.526;2023-06-14T14:07:01;3.60;;;1.30;;
80621;SDS011;69980;51.914;7.526;2023-06-14T14:09:27;4.75;;;1.30;;
80621;SDS011;69980;51.914;7.526;2023-06-14T14:11:53;3.80;;;1.40;;
80621;SDS011;69980;51.914;7.526;2023-06-14T14:14:18;3.63;;;1.30;;
80621;SDS011;69980;51.914;7.526;2023-06-14T14:16:43;3.05;;;1.30;;
80621;SDS011;69980;51.914;7.526;2023-06-14T14:19:09;2.40;;;1.20;;
80621;SDS011;69980;51.914;7.526;2023-06-14T14:21:34;2.60;;;1.00;;
80621;SDS011;69980;51.914;7.526;2023-06-14T14:23:59;2.40;;;1.20;;
80621;SDS011;69980;51.914;7.526;2023-06-14T14:26:25;3.85;;;1.10;;
80621;SDS011;69980;51.914;7.526;2023-06-14T14:28:50;3.45;;;1.00;;
80621;SDS011;69980;51.914;7.526;2023-06-14T14:31:16;3.50;;;1.10;;
80621;SDS011;69980;51.914;7.526;2023-06-14T14:33:41;2.00;;;1.05;;
80621;SDS011;69980;51.914;7.526;2023-06-14T14:36:07;2.63;;;1.10;;
80621;SDS011;69980;51.914;7.526;2023-06-14T14:38:32;2.92;;;1.20;;
80621;SDS011;69980;51.914;7.526;2023-06-14T14:40:58;2.55;;;1.08;;
80621;SDS011;69980;51.914;7.526;2023-06-14T14:43:23;5.30;;;1.30;;
80621;SDS011;69980;51.914;7.526;2023-06-14T14:45:48;3.55;;;1.05;;
80621;SDS011;69980;51.914;7.526;2023-06-14T14:48:13;4.75;;;1.20;;
80621;SDS011;69980;51.914;7.526;2023-06-14T14:50:39;3.65;;;1.10;;
80621;SDS011;69980;51.914;7.526;2023-06-14T14:53:05;5.03;;;1.30;;
80621;SDS011;69980;51.914;7.526;2023-06-14T14:55:30;3.35;;;1.20;;